createdAt,value
2023-02-09T00:01:10.674Z,42.72
2023-02-09T00:03:38.541Z,43.83
2023-02-09T00:06:07.985Z,42.70
2023-02-09T00:08:36.561Z,43.17
2023-02-09T00:11:52.221Z,43.92
2023-02-09T00:14:22.090Z,41.50
2023-02-09T00:16:50.740Z,43.70
2023-02-09T00:19:20.416Z,43.22
2023-02-09T00:21:48.736Z,40.22
2023-02-09T00:24:15.828Z,40.30
2023-02-09T00:26:42.846Z,41.17
2023-02-09T00:29:10.249Z,40.47
2023-02-09T00:31:38.116Z,41.75
2023-02-09T00:34:05.494Z,40.63
2023-02-09T00:36:33.284Z,40.75
2023-02-09T00:39:00.285Z,41.28
2023-02-09T00:41:46.874Z,41.85
2023-02-09T00:44:13.785Z,39.55
2023-02-09T00:46:40.623Z,40.10
2023-02-09T00:49:07.635Z,39.40
2023-02-09T00:51:34.665Z,39.83
2023-02-09T00:54:01.575Z,38.30
2023-02-09T00:56:28.390Z,39.47
2023-02-09T00:58:55.255Z,39.10
2023-02-09T01:01:22.158Z,38.22
2023-02-09T01:03:49.016Z,38.88
2023-02-09T01:06:15.911Z,37.22
2023-02-09T01:08:42.722Z,39.45
2023-02-09T01:11:12.280Z,39.13
2023-02-09T01:13:39.648Z,37.25
2023-02-09T01:16:13.962Z,37.05
2023-02-09T01:18:41.699Z,39.53
2023-02-09T01:21:18.369Z,37.40
2023-02-09T01:23:46.315Z,39.05
2023-02-09T01:26:15.741Z,38.45
2023-02-09T01:28:43.299Z,35.95
2023-02-09T01:31:28.032Z,39.22
2023-02-09T01:33:58.077Z,38.72
2023-02-09T01:36:24.994Z,39.78
2023-02-09T01:38:54.810Z,39.47
2023-02-09T01:41:22.541Z,39.35
2023-02-09T01:44:05.023Z,41.28
2023-02-09T01:46:35.407Z,40.20
2023-02-09T01:49:13.398Z,39.28
2023-02-09T01:51:52.027Z,40.88
2023-02-09T01:54:33.880Z,39.22
2023-02-09T01:57:09.686Z,38.58
2023-02-09T01:59:40.452Z,38.63
2023-02-09T02:02:09.066Z,39.28
2023-02-09T02:04:37.666Z,39.38
2023-02-09T02:07:20.716Z,36.95
2023-02-09T02:09:48.186Z,37.60
2023-02-09T02:12:15.898Z,41.08
2023-02-09T02:14:42.753Z,38.25
2023-02-09T02:17:35.226Z,37.95
2023-02-09T02:20:33.625Z,32.75
2023-02-09T02:23:13.078Z,35.72
2023-02-09T02:26:05.273Z,39.90
2023-02-09T02:28:55.018Z,38.97
2023-02-09T02:32:05.906Z,38.50
2023-02-09T02:34:41.322Z,38.83
2023-02-09T02:37:25.398Z,39.28
2023-02-09T02:40:28.117Z,37.95
2023-02-09T02:43:24.694Z,39.25
2023-02-09T02:46:26.729Z,38.70
2023-02-09T02:48:59.996Z,35.28
2023-02-09T02:51:44.443Z,38.47
2023-02-09T02:54:34.436Z,39.00
2023-02-09T02:57:14.938Z,39.30
2023-02-09T02:59:59.105Z,39.40
2023-02-09T03:02:38.597Z,37.50
2023-02-09T03:05:07.704Z,36.50
2023-02-09T03:07:34.695Z,38.40
2023-02-09T03:10:03.232Z,38.72
2023-02-09T03:13:14.579Z,39.25
2023-02-09T03:15:51.323Z,38.72
2023-02-09T03:18:33.098Z,36.33
2023-02-09T03:21:08.050Z,39.28
2023-02-09T03:24:05.722Z,36.25
2023-02-09T03:26:49.290Z,38.63
2023-02-09T03:29:19.861Z,39.15
2023-02-09T03:31:49.023Z,38.60
2023-02-09T03:34:16.929Z,39.15
2023-02-09T03:36:50.291Z,38.15
2023-02-09T03:39:17.162Z,38.25
2023-02-09T03:41:44.007Z,40.58
2023-02-09T03:44:29.257Z,38.95
2023-02-09T03:47:03.160Z,39.50
2023-02-09T03:49:39.234Z,39.85
2023-02-09T03:52:10.242Z,39.08
2023-02-09T03:54:37.543Z,40.63
2023-02-09T03:57:05.502Z,40.22
2023-02-09T03:59:35.494Z,38.88
2023-02-09T04:02:05.709Z,39.72
2023-02-09T04:04:32.700Z,39.22
2023-02-09T04:07:00.016Z,40.35
2023-02-09T04:09:28.556Z,40.05
2023-02-09T04:11:55.945Z,40.83
2023-02-09T04:14:23.047Z,39.35
2023-02-09T04:16:50.064Z,39.92
2023-02-09T04:19:17.017Z,41.05
2023-02-09T04:21:43.944Z,40.42
2023-02-09T04:24:11.284Z,38.15
2023-02-09T04:26:38.206Z,39.83
2023-02-09T04:29:05.229Z,40.28
2023-02-09T04:31:32.571Z,41.80
2023-02-09T04:33:59.461Z,41.85
2023-02-09T04:36:26.282Z,40.20
2023-02-09T04:38:53.143Z,41.10
2023-02-09T04:41:20.064Z,40.28
2023-02-09T04:43:47.637Z,40.72
2023-02-09T04:46:17.956Z,40.50
2023-02-09T04:48:45.939Z,39.25
2023-02-09T04:51:13.451Z,40.78
2023-02-09T04:53:40.385Z,40.58
2023-02-09T04:56:07.559Z,40.88
2023-02-09T04:58:53.199Z,39.90
2023-02-09T05:01:23.927Z,39.10
2023-02-09T05:03:51.607Z,42.33
2023-02-09T05:06:19.533Z,42.60
2023-02-09T05:08:46.836Z,42.53
2023-02-09T05:11:13.705Z,41.33
2023-02-09T05:13:40.685Z,46.65
2023-02-09T05:16:10.342Z,50.60
2023-02-09T05:18:37.182Z,41.35
2023-02-09T05:21:04.346Z,41.60
2023-02-09T05:23:31.313Z,40.78
2023-02-09T05:25:58.353Z,42.90
2023-02-09T05:28:25.840Z,46.75
2023-02-09T05:30:53.985Z,43.70
2023-02-09T05:33:25.844Z,43.92
2023-02-09T05:35:55.851Z,43.15
2023-02-09T05:38:23.419Z,43.78
2023-02-09T05:40:50.985Z,44.88
2023-02-09T05:43:18.555Z,43.90
2023-02-09T05:45:46.641Z,42.47
2023-02-09T05:48:13.648Z,43.33
2023-02-09T05:50:40.486Z,44.38
2023-02-09T05:53:08.615Z,45.13
2023-02-09T05:55:35.659Z,40.95
2023-02-09T05:58:02.500Z,40.58
2023-02-09T06:00:29.916Z,39.83
2023-02-09T06:02:57.102Z,38.50
2023-02-09T06:05:24.565Z,40.08
2023-02-09T06:07:51.492Z,39.05
2023-02-09T06:10:18.780Z,39.50
2023-02-09T06:12:45.737Z,40.38
2023-02-09T06:15:13.030Z,40.17
2023-02-09T06:17:39.869Z,40.50
2023-02-09T06:20:07.343Z,40.17
2023-02-09T06:22:34.458Z,39.85
2023-02-09T06:25:01.296Z,40.55
2023-02-09T06:27:28.131Z,39.03
2023-02-09T06:29:55.037Z,39.63
2023-02-09T06:32:21.870Z,40.30
2023-02-09T06:34:48.696Z,41.45
2023-02-09T06:37:16.637Z,40.80
2023-02-09T06:39:43.530Z,42.50
2023-02-09T06:42:10.360Z,42.33
2023-02-09T06:44:37.156Z,48.50
2023-02-09T06:47:04.743Z,50.35
2023-02-09T06:49:31.577Z,47.13
2023-02-09T06:51:58.616Z,51.28
2023-02-09T06:54:25.798Z,49.35
2023-02-09T06:56:52.635Z,55.97
2023-02-09T06:59:19.738Z,47.08
2023-02-09T07:01:48.976Z,51.13
2023-02-09T07:04:15.829Z,47.20
2023-02-09T07:06:42.699Z,52.40
2023-02-09T07:09:09.588Z,49.58
2023-02-09T07:11:36.986Z,46.13
2023-02-09T07:14:03.795Z,45.65
2023-02-09T07:16:30.633Z,44.13
2023-02-09T07:19:00.467Z,43.75
2023-02-09T07:21:27.404Z,44.70
2023-02-09T07:23:54.186Z,44.85
2023-02-09T07:26:21.094Z,44.67
2023-02-09T07:28:48.134Z,47.67
2023-02-09T07:31:17.028Z,47.75
2023-02-09T07:33:44.437Z,50.30
2023-02-09T07:36:14.914Z,48.53
2023-02-09T07:38:42.361Z,47.42
2023-02-09T07:41:20.201Z,47.97
2023-02-09T07:43:47.696Z,46.85
2023-02-09T07:46:17.840Z,46.30
2023-02-09T07:48:44.829Z,49.38
2023-02-09T07:51:25.139Z,48.85
2023-02-09T07:53:53.460Z,48.10
2023-02-09T07:56:20.673Z,46.65
2023-02-09T07:58:47.584Z,46.55
2023-02-09T08:01:15.861Z,47.45
2023-02-09T08:03:46.663Z,46.58
2023-02-09T08:06:26.051Z,44.65
2023-02-09T08:08:57.290Z,44.50
2023-02-09T08:11:40.179Z,43.38
2023-02-09T08:16:49.951Z,43.05
2023-02-09T08:19:23.395Z,42.60
2023-02-09T08:21:51.849Z,42.70
2023-02-09T08:24:21.566Z,44.92
2023-02-09T08:26:51.214Z,45.15
2023-02-09T08:29:18.288Z,46.33
2023-02-09T08:31:45.387Z,46.30
2023-02-09T08:34:12.314Z,43.78
2023-02-09T08:36:41.425Z,42.72
2023-02-09T08:39:09.702Z,45.25
2023-02-09T08:41:36.565Z,45.70
2023-02-09T08:44:03.722Z,44.45
2023-02-09T08:46:30.910Z,43.05
2023-02-09T08:48:57.921Z,43.75
2023-02-09T08:51:24.764Z,42.47
2023-02-09T08:53:52.587Z,43.13
2023-02-09T08:56:21.945Z,43.58
2023-02-09T08:58:49.991Z,44.70
2023-02-09T09:01:16.965Z,44.53
2023-02-09T09:03:43.966Z,43.80
2023-02-09T09:06:12.357Z,43.60
2023-02-09T09:08:40.810Z,42.95
2023-02-09T09:11:12.852Z,44.67
2023-02-09T09:13:41.581Z,42.83
2023-02-09T09:16:19.781Z,45.40
2023-02-09T09:18:47.141Z,42.33
2023-02-09T09:21:16.911Z,43.67
2023-02-09T09:23:46.361Z,51.47
2023-02-09T09:26:15.714Z,45.75
2023-02-09T09:28:43.354Z,48.22
2023-02-09T09:31:16.617Z,49.05
2023-02-09T09:33:45.902Z,42.72
2023-02-09T09:36:14.710Z,44.88
2023-02-09T09:38:41.702Z,41.63
2023-02-09T09:41:41.091Z,42.65
2023-02-09T09:44:27.312Z,40.22
2023-02-09T09:47:00.982Z,42.53
2023-02-09T09:49:31.440Z,43.38
2023-02-09T09:52:12.818Z,42.42
2023-02-09T09:54:42.195Z,43.65
2023-02-09T09:57:28.789Z,54.20
2023-02-09T09:59:57.590Z,43.67
2023-02-09T10:02:33.183Z,42.83
2023-02-09T10:05:17.540Z,42.60
2023-02-09T10:07:59.572Z,38.72
2023-02-09T10:11:05.144Z,40.47
2023-02-09T10:13:51.549Z,39.40
2023-02-09T10:16:25.425Z,41.95
2023-02-09T10:19:05.950Z,45.95
2023-02-09T10:21:36.228Z,41.42
2023-02-09T10:24:12.292Z,44.13
2023-02-09T10:26:40.751Z,42.03
2023-02-09T10:29:29.263Z,54.80
2023-02-09T10:32:20.179Z,47.17
2023-02-09T10:34:53.753Z,70.13
2023-02-09T10:37:38.852Z,49.75
2023-02-09T10:40:17.282Z,50.10
2023-02-09T10:42:57.380Z,41.85
2023-02-09T10:45:41.142Z,40.03
2023-02-09T10:48:19.250Z,42.40
2023-02-09T10:51:18.900Z,41.40
2023-02-09T10:54:19.334Z,52.85
2023-02-09T10:56:49.259Z,51.65
2023-02-09T10:59:22.857Z,45.17
2023-02-09T11:02:02.043Z,41.97
2023-02-09T11:04:40.651Z,41.10
2023-02-09T11:07:19.512Z,41.28
2023-02-09T11:09:50.763Z,39.72
2023-02-09T11:12:20.479Z,38.25
2023-02-09T11:14:47.338Z,38.47
2023-02-09T11:17:29.658Z,39.45
2023-02-09T11:20:30.771Z,43.85
2023-02-09T11:23:31.633Z,60.17
2023-02-09T11:26:10.535Z,48.05
2023-02-09T11:29:20.731Z,41.28
2023-02-09T11:32:12.211Z,73.00
2023-02-09T11:35:16.302Z,53.83
2023-02-09T11:38:11.629Z,42.40
2023-02-09T11:40:46.193Z,35.22
2023-02-09T11:43:24.718Z,43.95
2023-02-09T11:46:00.391Z,51.97
2023-02-09T11:48:45.644Z,40.67
2023-02-09T11:51:21.013Z,38.95
2023-02-09T11:54:14.254Z,46.00
2023-02-09T11:56:55.884Z,74.85
2023-02-09T11:59:45.706Z,37.90
2023-02-09T12:02:47.319Z,35.72
2023-02-09T12:05:19.917Z,80.07
2023-02-09T12:07:58.437Z,64.18
2023-02-09T12:10:42.170Z,35.70
2023-02-09T12:13:20.478Z,34.63
2023-02-09T12:16:17.924Z,58.20
2023-02-09T12:18:46.390Z,36.38
2023-02-09T12:21:23.975Z,34.35
2023-02-09T12:23:50.847Z,46.70
2023-02-09T12:26:17.612Z,51.75
2023-02-09T12:29:03.357Z,39.88
2023-02-09T12:32:04.274Z,43.42
2023-02-09T12:34:42.530Z,46.60
2023-02-09T12:37:29.543Z,39.25
2023-02-09T12:40:11.240Z,32.63
2023-02-09T12:42:45.989Z,32.72
2023-02-09T12:45:38.332Z,38.22
2023-02-09T12:48:07.954Z,39.22
2023-02-09T12:50:43.738Z,39.72
2023-02-09T12:53:23.014Z,49.70
2023-02-09T12:56:27.102Z,41.38
2023-02-09T12:59:12.736Z,45.17
2023-02-09T13:02:07.724Z,40.47
2023-02-09T13:05:18.278Z,45.90
2023-02-09T13:08:13.209Z,45.95
2023-02-09T13:11:14.039Z,35.47
2023-02-09T13:13:51.120Z,36.90
2023-02-09T13:16:36.490Z,33.63
2023-02-09T13:19:51.846Z,35.70
2023-02-09T13:22:28.159Z,32.05
2023-02-09T13:25:18.190Z,35.08
2023-02-09T13:27:49.473Z,35.22
2023-02-09T13:30:32.335Z,35.78
2023-02-09T13:33:35.326Z,37.92
2023-02-09T13:36:24.976Z,39.60
2023-02-09T13:38:53.066Z,37.00
2023-02-09T13:41:39.176Z,36.78
2023-02-09T13:44:32.040Z,37.28
2023-02-09T13:47:07.171Z,40.08
2023-02-09T13:49:34.116Z,41.65
2023-02-09T13:52:20.848Z,39.97
2023-02-09T13:54:47.902Z,37.80
2023-02-09T13:57:28.637Z,39.75
2023-02-09T14:00:01.846Z,37.63
2023-02-09T14:02:28.918Z,39.05
2023-02-09T14:05:01.927Z,42.15
2023-02-09T14:10:21.208Z,36.45
2023-02-09T14:13:00.679Z,44.25
2023-02-09T14:16:03.925Z,41.20
2023-02-09T14:18:45.954Z,47.05
2023-02-09T14:21:15.491Z,44.25
2023-02-09T14:23:49.284Z,45.05
2023-02-09T14:26:24.674Z,47.03
2023-02-09T14:29:17.596Z,48.47
2023-02-09T14:31:52.365Z,39.97
2023-02-09T14:34:38.998Z,47.00
2023-02-09T14:37:11.939Z,42.92
2023-02-09T14:42:24.381Z,42.33
2023-02-09T14:44:58.464Z,39.10
2023-02-09T14:47:40.363Z,40.10
2023-02-09T14:50:12.705Z,38.10
2023-02-09T14:52:46.707Z,39.55
2023-02-09T14:55:27.052Z,37.97
2023-02-09T14:57:54.062Z,37.42
2023-02-09T15:00:30.546Z,36.58
2023-02-09T15:02:59.941Z,36.30
2023-02-09T15:05:28.955Z,35.83
2023-02-09T15:08:05.784Z,35.85
2023-02-09T15:10:42.873Z,37.55
2023-02-09T15:13:15.158Z,36.50
2023-02-09T15:15:43.246Z,34.72
2023-02-09T15:18:40.343Z,37.65
2023-02-09T15:21:07.166Z,37.22
2023-02-09T15:23:33.955Z,37.90
2023-02-09T15:26:01.720Z,37.33
2023-02-09T15:28:29.780Z,39.42
2023-02-09T15:30:58.805Z,40.10
2023-02-09T15:33:27.267Z,42.13
2023-02-09T15:35:54.867Z,39.17
2023-02-09T15:38:21.959Z,44.08
2023-02-09T15:41:10.131Z,58.88
2023-02-09T15:43:55.639Z,56.75
2023-02-09T15:46:41.245Z,88.47
2023-02-09T15:49:08.200Z,45.97
2023-02-09T15:51:38.760Z,43.38
2023-02-09T15:54:18.883Z,42.72
2023-02-09T15:56:46.273Z,45.35
2023-02-09T15:59:22.765Z,46.53
2023-02-09T16:01:50.782Z,42.72
2023-02-09T16:04:18.199Z,44.33
2023-02-09T16:06:55.127Z,42.03
2023-02-09T16:09:28.090Z,43.05
2023-02-09T16:14:26.909Z,61.28
2023-02-09T16:16:53.856Z,47.47
2023-02-09T16:19:22.117Z,42.97
2023-02-09T16:21:58.295Z,48.60
2023-02-09T16:25:00.819Z,41.13
2023-02-09T16:27:28.998Z,42.13
2023-02-09T16:29:58.585Z,51.70
2023-02-09T16:32:28.617Z,50.10
2023-02-09T16:35:07.310Z,42.83
2023-02-09T16:37:34.741Z,41.30
2023-02-09T16:40:02.224Z,42.33
2023-02-09T16:42:29.693Z,40.88
2023-02-09T16:44:56.970Z,42.17
2023-02-09T16:47:28.475Z,40.55
2023-02-09T16:50:13.391Z,39.05
2023-02-09T16:52:43.862Z,37.67
2023-02-09T16:55:22.444Z,36.53
2023-02-09T16:57:51.426Z,37.55
2023-02-09T17:00:18.839Z,37.33
2023-02-09T17:03:15.418Z,35.67
2023-02-09T17:05:47.996Z,39.42
2023-02-09T17:08:22.047Z,41.05
2023-02-09T17:10:53.013Z,37.50
2023-02-09T17:13:23.034Z,37.53
2023-02-09T17:15:57.550Z,48.22
2023-02-09T17:18:28.600Z,35.85
2023-02-09T17:21:04.226Z,52.17
2023-02-09T17:23:31.414Z,36.17
2023-02-09T17:25:59.101Z,35.88
2023-02-09T17:28:27.600Z,34.22
2023-02-09T17:31:02.339Z,43.00
2023-02-09T17:33:35.145Z,37.33
2023-02-09T17:36:26.313Z,36.75
2023-02-09T17:38:51.621Z,34.25
2023-02-09T17:41:28.590Z,37.58
2023-02-09T17:44:13.923Z,34.85
2023-02-09T17:46:46.764Z,43.47
2023-02-09T17:49:13.863Z,40.10
2023-02-09T17:51:44.480Z,33.83
2023-02-09T17:54:15.296Z,36.00
2023-02-09T17:56:42.976Z,32.17
2023-02-09T17:59:10.456Z,33.45
2023-02-09T18:01:45.110Z,31.88
2023-02-09T18:04:26.871Z,32.28
2023-02-09T18:06:56.627Z,33.55
2023-02-09T18:09:24.515Z,32.95
2023-02-09T18:11:52.230Z,34.17
2023-02-09T18:14:22.237Z,31.33
2023-02-09T18:16:50.267Z,32.67
2023-02-09T18:19:17.421Z,29.60
2023-02-09T18:21:59.859Z,38.13
2023-02-09T18:24:31.752Z,36.22
2023-02-09T18:26:59.130Z,70.93
2023-02-09T18:29:29.315Z,50.97
2023-02-09T18:31:58.775Z,30.23
2023-02-09T18:34:27.038Z,36.40
2023-02-09T18:36:54.161Z,32.22
2023-02-09T18:39:21.414Z,27.90
2023-02-09T18:41:54.843Z,26.75
2023-02-09T18:44:28.647Z,28.90
2023-02-09T18:46:57.963Z,27.25
2023-02-09T18:49:26.141Z,27.30
2023-02-09T18:51:53.645Z,25.58
2023-02-09T18:54:22.142Z,26.25
2023-02-09T18:56:49.091Z,23.80
2023-02-09T18:59:17.701Z,25.70
2023-02-09T19:01:45.181Z,26.15
2023-02-09T19:04:13.364Z,24.98
2023-02-09T19:06:40.446Z,26.17
2023-02-09T19:09:07.408Z,24.50
2023-02-09T19:11:34.449Z,25.20
2023-02-09T19:14:26.718Z,24.75
2023-02-09T19:16:54.274Z,25.23
2023-02-09T19:19:21.261Z,26.55
2023-02-09T19:21:52.103Z,24.90
2023-02-09T19:24:19.229Z,24.58
2023-02-09T19:26:46.202Z,24.65
2023-02-09T19:29:13.926Z,24.17
2023-02-09T19:31:41.004Z,24.02
2023-02-09T19:34:08.006Z,23.67
2023-02-09T19:36:35.000Z,23.83
2023-02-09T19:39:02.240Z,23.08
2023-02-09T19:41:29.281Z,24.75
2023-02-09T19:43:58.304Z,26.15
2023-02-09T19:46:25.745Z,22.48
2023-02-09T19:48:57.450Z,22.98
2023-02-09T19:51:25.097Z,21.00
2023-02-09T19:53:52.080Z,22.23
2023-02-09T19:56:23.342Z,21.35
2023-02-09T19:58:51.757Z,20.85
2023-02-09T20:01:20.546Z,21.67
2023-02-09T20:03:49.569Z,21.17
2023-02-09T20:06:17.128Z,19.52
2023-02-09T20:08:44.613Z,20.60
2023-02-09T20:11:17.249Z,19.80
2023-02-09T20:13:44.831Z,19.40
2023-02-09T20:16:23.988Z,19.48
2023-02-09T20:18:52.454Z,19.38
2023-02-09T20:21:22.684Z,19.30
2023-02-09T20:23:54.064Z,19.38
2023-02-09T20:26:29.099Z,18.70
2023-02-09T20:28:59.509Z,18.75
2023-02-09T20:31:29.974Z,17.83
2023-02-09T20:33:56.922Z,19.17
2023-02-09T20:36:25.522Z,18.50
2023-02-09T20:38:52.855Z,18.13
2023-02-09T20:41:19.852Z,17.92
2023-02-09T20:44:06.577Z,18.80
2023-02-09T20:46:43.444Z,17.33
2023-02-09T20:49:16.472Z,18.90
2023-02-09T20:51:46.006Z,17.90
2023-02-09T20:54:15.924Z,18.20
2023-02-09T20:56:43.343Z,18.48
2023-02-09T20:59:11.394Z,18.45
2023-02-09T21:01:39.059Z,18.02
2023-02-09T21:04:07.308Z,18.55
2023-02-09T21:06:37.193Z,18.40
2023-02-09T21:09:11.975Z,18.05
2023-02-09T21:11:39.330Z,17.92
2023-02-09T21:14:06.308Z,18.55
2023-02-09T21:16:33.683Z,18.40
2023-02-09T21:19:01.049Z,18.48
2023-02-09T21:21:29.873Z,17.42
2023-02-09T21:23:56.784Z,18.00
2023-02-09T21:26:24.486Z,17.50
2023-02-09T21:28:56.088Z,17.40
2023-02-09T21:31:26.654Z,16.23
2023-02-09T21:33:54.217Z,16.95
2023-02-09T21:36:21.191Z,16.67
2023-02-09T21:38:48.132Z,16.50
2023-02-09T21:41:43.948Z,16.17
2023-02-09T21:44:12.559Z,16.10
2023-02-09T21:46:39.540Z,15.38
2023-02-09T21:49:07.064Z,15.82
2023-02-09T21:51:34.755Z,17.23
2023-02-09T21:54:01.631Z,15.52
2023-02-09T21:56:28.570Z,15.68
2023-02-09T21:58:55.709Z,16.70
2023-02-09T22:01:22.718Z,16.40
2023-02-09T22:03:56.874Z,15.25
2023-02-09T22:06:25.335Z,15.25
2023-02-09T22:08:52.658Z,15.93
2023-02-09T22:11:19.855Z,14.73
2023-02-09T22:13:46.715Z,14.75
2023-02-09T22:16:20.653Z,13.85
2023-02-09T22:18:48.276Z,15.00
2023-02-09T22:21:15.776Z,15.30
2023-02-09T22:23:43.053Z,14.48
2023-02-09T22:26:13.656Z,14.50
2023-02-09T22:28:42.276Z,14.13
2023-02-09T22:31:13.473Z,14.73
2023-02-09T22:33:40.585Z,14.00
2023-02-09T22:36:12.350Z,13.95
2023-02-09T22:38:40.167Z,13.82
2023-02-09T22:41:23.509Z,14.23
2023-02-09T22:43:58.868Z,13.57
2023-02-09T22:46:30.411Z,13.95
2023-02-09T22:49:01.783Z,13.40
2023-02-09T22:51:31.118Z,13.27
2023-02-09T22:53:59.737Z,13.38
2023-02-09T22:56:28.962Z,14.00
2023-02-09T22:58:57.795Z,13.80
2023-02-09T23:01:25.253Z,13.20
2023-02-09T23:03:52.676Z,12.85
2023-02-09T23:06:27.208Z,13.00
2023-02-09T23:09:02.135Z,13.02
2023-02-09T23:11:30.772Z,13.02
2023-02-09T23:14:14.202Z,12.93
2023-02-09T23:16:43.821Z,12.43
2023-02-09T23:19:19.154Z,13.52
2023-02-09T23:21:49.894Z,13.55
2023-02-09T23:24:21.734Z,13.00
2023-02-09T23:26:49.220Z,10.83
2023-02-09T23:29:17.553Z,14.57
2023-02-09T23:31:46.454Z,12.93
2023-02-09T23:34:22.681Z,12.90
2023-02-09T23:36:49.920Z,12.80
2023-02-09T23:39:21.300Z,13.80
2023-02-09T23:41:48.373Z,13.77
2023-02-09T23:44:15.264Z,13.55
2023-02-09T23:46:42.357Z,13.95
2023-02-09T23:49:09.284Z,13.70
2023-02-09T23:51:37.565Z,14.27
2023-02-09T23:54:07.271Z,13.98
2023-02-09T23:56:37.219Z,13.82
2023-02-09T23:59:07.385Z,13.25
